createdAt,value
2018-04-06T00:01:50.715Z,5.20
2018-04-06T00:04:18.177Z,5.20
2018-04-06T00:06:45.776Z,5.20
2018-04-06T00:09:13.238Z,5.20
2018-04-06T00:11:41.468Z,5.10
2018-04-06T00:14:08.909Z,5.10
2018-04-06T00:16:36.365Z,5.00
2018-04-06T00:19:03.817Z,4.90
2018-04-06T00:21:31.256Z,4.80
2018-04-06T00:23:58.713Z,4.90
2018-04-06T00:26:26.164Z,4.80
2018-04-06T00:28:54.391Z,4.60
2018-04-06T00:31:21.842Z,4.60
2018-04-06T00:33:49.305Z,4.60
2018-04-06T00:36:16.757Z,4.50
2018-04-06T00:38:44.218Z,4.40
2018-04-06T00:41:11.671Z,4.40
2018-04-06T00:43:39.151Z,4.20
2018-04-06T00:46:06.680Z,4.20
2018-04-06T00:48:34.151Z,4.10
2018-04-06T00:51:01.611Z,4.10
2018-04-06T00:53:40.960Z,4.10
2018-04-06T00:56:08.415Z,4.10
2018-04-06T00:58:35.889Z,3.90
2018-04-06T01:01:03.334Z,3.90
2018-04-06T01:03:30.785Z,3.90
2018-04-06T01:05:58.252Z,3.80
2018-04-06T01:08:25.695Z,3.70
2018-04-06T01:10:53.145Z,3.60
2018-04-06T01:13:20.606Z,3.50
2018-04-06T01:15:48.096Z,3.50
2018-04-06T01:18:15.546Z,3.50
2018-04-06T01:20:43.018Z,3.50
2018-04-06T01:23:11.249Z,3.40
2018-04-06T01:25:38.704Z,3.30
2018-04-06T01:28:06.166Z,3.40
2018-04-06T01:33:07.434Z,3.20
2018-04-06T01:35:34.894Z,3.00
2018-04-06T01:38:02.361Z,3.10
2018-04-06T01:40:29.838Z,3.10
2018-04-06T01:42:58.045Z,2.90
2018-04-06T01:45:25.501Z,2.90
2018-04-06T01:47:52.945Z,2.80
2018-04-06T01:50:21.153Z,2.90
2018-04-06T01:52:48.618Z,2.80
2018-04-06T01:55:16.079Z,2.80
2018-04-06T01:57:43.555Z,2.80
2018-04-06T02:00:10.968Z,2.60
2018-04-06T02:02:38.425Z,2.60
2018-04-06T02:05:05.882Z,2.60
2018-04-06T02:07:34.102Z,2.50
2018-04-06T02:10:01.545Z,2.40
2018-04-06T02:12:28.996Z,2.40
2018-04-06T02:14:56.442Z,2.30
2018-04-06T02:17:23.893Z,2.30
2018-04-06T02:19:51.337Z,2.20
2018-04-06T02:22:18.780Z,2.20
2018-04-06T02:24:46.267Z,2.10
2018-04-06T02:27:13.676Z,2.10
2018-04-06T02:29:41.906Z,2.10
2018-04-06T02:32:09.346Z,2.00
2018-04-06T02:34:36.807Z,2.00
2018-04-06T02:37:04.281Z,2.00
2018-04-06T02:39:31.733Z,1.90
2018-04-06T02:41:59.181Z,1.90
2018-04-06T02:44:26.631Z,1.90
2018-04-06T02:46:54.078Z,1.70
2018-04-06T02:49:21.535Z,1.80
2018-04-06T02:51:48.975Z,1.70
2018-04-06T02:54:16.417Z,1.70
2018-04-06T02:56:43.872Z,1.60
2018-04-06T02:59:11.309Z,1.60
2018-04-06T03:01:38.764Z,1.50
2018-04-06T03:04:06.203Z,1.40
2018-04-06T03:06:33.677Z,1.40
2018-04-06T03:09:01.142Z,1.40
2018-04-06T03:11:28.610Z,1.30
2018-04-06T03:13:56.824Z,1.20
2018-04-06T03:16:24.282Z,1.20
2018-04-06T03:18:51.736Z,1.30
2018-04-06T03:21:19.203Z,1.20
2018-04-06T03:23:46.673Z,1.20
2018-04-06T03:26:14.127Z,1.20
2018-04-06T03:28:41.561Z,1.20
2018-04-06T03:31:09.020Z,1.20
2018-04-06T03:33:36.466Z,1.10
2018-04-06T03:36:03.925Z,1.10
2018-04-06T03:38:31.366Z,1.20
2018-04-06T03:40:59.586Z,1.10
2018-04-06T03:43:27.022Z,1.00
2018-04-06T03:45:54.496Z,1.10
2018-04-06T03:48:21.941Z,1.10
2018-04-06T03:50:49.391Z,1.00
2018-04-06T03:53:16.836Z,1.10
2018-04-06T03:55:44.304Z,1.00
2018-04-06T03:58:11.746Z,0.90
2018-04-06T04:00:39.961Z,0.90
2018-04-06T04:03:07.418Z,0.80
2018-04-06T04:05:34.877Z,0.80
2018-04-06T04:08:02.325Z,0.70
2018-04-06T04:10:29.769Z,0.70
2018-04-06T04:12:57.222Z,0.60
2018-04-06T04:15:24.670Z,0.60
2018-04-06T04:17:52.117Z,0.60
2018-04-06T04:20:19.570Z,0.50
2018-04-06T04:22:47.016Z,0.40
2018-04-06T04:25:15.222Z,0.40
2018-04-06T04:27:42.701Z,0.30
2018-04-06T04:30:10.149Z,0.30
2018-04-06T04:32:37.602Z,0.30
2018-04-06T04:35:05.045Z,0.20
2018-04-06T04:37:32.476Z,0.10
2018-04-06T04:40:00.736Z,0.10
2018-04-06T04:42:28.149Z,0.10
2018-04-06T04:44:55.596Z,0.10
2018-04-06T04:47:23.054Z,0.10
2018-04-06T04:49:50.503Z,0.10
2018-04-06T04:52:17.959Z,0.20
2018-04-06T04:54:45.397Z,0.20
2018-04-06T04:57:13.623Z,0.20
2018-04-06T04:59:41.078Z,0.10
2018-04-06T05:02:08.521Z,0.20
2018-04-06T05:04:35.965Z,0.20
2018-04-06T05:07:03.426Z,0.30
2018-04-06T05:09:30.876Z,0.40
2018-04-06T05:11:58.337Z,0.40
2018-04-06T05:14:25.799Z,0.50
2018-04-06T05:16:53.265Z,0.60
2018-04-06T05:19:20.713Z,0.70
2018-04-06T05:21:48.179Z,0.70
2018-04-06T05:24:15.623Z,0.70
2018-04-06T05:26:43.082Z,0.70
2018-04-06T05:29:10.529Z,0.80
2018-04-06T05:31:37.992Z,0.90
2018-04-06T05:34:05.442Z,1.10
2018-04-06T05:36:32.893Z,1.30
2018-04-06T05:39:00.339Z,1.50
2018-04-06T05:41:28.565Z,1.90
2018-04-06T05:43:56.002Z,1.90
2018-04-06T05:46:23.458Z,2.00
2018-04-06T05:48:50.915Z,2.10
2018-04-06T05:51:18.374Z,2.30
2018-04-06T05:53:45.822Z,2.40
2018-04-06T05:56:13.280Z,2.50
2018-04-06T05:58:40.736Z,2.60
2018-04-06T06:01:08.182Z,2.70
2018-04-06T06:03:35.637Z,2.90
2018-04-06T06:06:03.089Z,3.00
2018-04-06T06:08:30.553Z,3.10
2018-04-06T06:10:58.005Z,3.20
2018-04-06T06:13:25.477Z,3.40
2018-04-06T06:15:52.943Z,3.50
2018-04-06T06:18:20.410Z,3.50
2018-04-06T06:20:47.901Z,3.50
2018-04-06T06:23:15.357Z,3.60
2018-04-06T06:25:42.817Z,3.70
2018-04-06T06:28:10.269Z,3.90
2018-04-06T06:30:37.729Z,4.00
2018-04-06T06:33:05.194Z,4.00
2018-04-06T06:35:33.409Z,4.30
2018-04-06T06:38:00.865Z,4.30
2018-04-06T06:40:28.309Z,4.30
2018-04-06T06:42:55.771Z,4.50
2018-04-06T06:45:23.225Z,4.60
2018-04-06T06:47:50.672Z,4.70
2018-04-06T06:50:18.154Z,4.80
2018-04-06T06:52:45.608Z,4.90
2018-04-06T06:55:13.066Z,5.00
2018-04-06T06:57:40.522Z,5.10
2018-04-06T07:00:07.981Z,5.20
2018-04-06T07:02:36.235Z,5.40
2018-04-06T07:05:03.693Z,5.40
2018-04-06T07:07:31.165Z,5.50
2018-04-06T07:09:58.629Z,5.50
2018-04-06T07:12:26.104Z,5.60
2018-04-06T07:14:53.558Z,5.50
2018-04-06T07:17:21.052Z,5.60
2018-04-06T07:19:49.323Z,5.80
2018-04-06T07:22:16.823Z,5.70
2018-04-06T07:24:44.280Z,5.90
2018-04-06T07:27:11.742Z,6.00
2018-04-06T07:29:39.211Z,6.10
2018-04-06T07:32:06.673Z,6.30
2018-04-06T07:34:34.130Z,6.40
2018-04-06T07:37:01.601Z,6.50
2018-04-06T07:39:29.064Z,6.70
2018-04-06T07:41:56.533Z,6.80
2018-04-06T07:44:24.021Z,6.90
2018-04-06T07:46:52.253Z,7.20
2018-04-06T07:49:19.723Z,7.20
2018-04-06T07:51:47.190Z,7.40
2018-04-06T07:54:14.673Z,7.70
2018-04-06T07:56:42.129Z,8.10
2018-04-06T07:59:09.583Z,8.30
2018-04-06T08:01:37.042Z,8.50
2018-04-06T08:04:05.254Z,10.40
2018-04-06T08:06:32.757Z,10.30
2018-04-06T08:09:00.996Z,11.70
2018-04-06T08:11:28.501Z,11.60
2018-04-06T08:13:56.750Z,12.30
2018-04-06T08:16:24.205Z,12.30
2018-04-06T08:18:51.663Z,12.90
2018-04-06T08:21:19.122Z,12.90
2018-04-06T08:23:46.567Z,13.20
2018-04-06T08:26:14.078Z,13.90
2018-04-06T08:28:41.489Z,13.60
2018-04-06T08:31:08.939Z,14.20
2018-04-06T08:33:36.399Z,14.90
2018-04-06T08:36:03.849Z,14.40
2018-04-06T08:38:31.315Z,14.20
2018-04-06T08:40:58.785Z,15.00
2018-04-06T08:43:26.250Z,15.40
2018-04-06T08:45:54.467Z,16.30
2018-04-06T08:48:21.926Z,16.20
2018-04-06T08:50:50.141Z,16.80
2018-04-06T08:53:17.602Z,16.80
2018-04-06T08:55:45.081Z,18.10
2018-04-06T08:58:13.336Z,17.80
2018-04-06T09:00:40.784Z,17.80
2018-04-06T09:05:42.028Z,18.00
2018-04-06T09:08:09.492Z,18.10
2018-04-06T09:10:36.933Z,19.30
2018-04-06T09:13:04.382Z,18.30
2018-04-06T09:15:31.860Z,17.60
2018-04-06T09:17:59.295Z,17.90
2018-04-06T09:20:26.798Z,18.00
2018-04-06T09:22:54.258Z,18.60
2018-04-06T09:25:21.707Z,18.70
2018-04-06T09:27:49.161Z,17.90
2018-04-06T09:30:16.619Z,17.20
2018-04-06T09:32:44.077Z,17.60
2018-04-06T09:35:11.592Z,17.50
2018-04-06T09:37:39.079Z,18.20
2018-04-06T09:40:06.668Z,18.00
2018-04-06T09:42:34.222Z,18.10
2018-04-06T09:45:01.666Z,17.60
2018-04-06T09:47:29.312Z,17.00
2018-04-06T09:49:56.810Z,17.20
2018-04-06T09:52:25.185Z,17.90
2018-04-06T09:54:52.661Z,17.80
2018-04-06T09:57:20.231Z,18.50
2018-04-06T09:59:47.744Z,19.70
2018-04-06T10:02:15.226Z,19.40
2018-04-06T10:04:43.438Z,19.10
2018-04-06T10:07:11.194Z,19.10
2018-04-06T10:09:38.647Z,19.00
2018-04-06T10:12:06.093Z,18.60
2018-04-06T10:14:33.546Z,18.60
2018-04-06T10:17:00.990Z,18.00
2018-04-06T10:19:29.262Z,18.80
2018-04-06T10:21:57.633Z,19.40
2018-04-06T10:24:26.052Z,19.60
2018-04-06T10:26:53.496Z,19.60
2018-04-06T10:29:20.948Z,19.70
2018-04-06T10:31:48.438Z,18.50
2018-04-06T10:34:15.908Z,18.80
2018-04-06T10:36:43.362Z,19.30
2018-04-06T10:39:10.818Z,20.00
2018-04-06T10:41:38.383Z,20.00
2018-04-06T10:44:05.835Z,20.20
2018-04-06T10:46:33.286Z,20.40
2018-04-06T10:49:00.750Z,20.90
2018-04-06T10:51:28.229Z,21.00
2018-04-06T10:53:56.793Z,21.00
2018-04-06T10:56:24.249Z,22.00
2018-04-06T10:58:51.716Z,22.60
2018-04-06T11:01:19.253Z,22.70
2018-04-06T11:03:46.711Z,22.70
2018-04-06T11:06:14.213Z,21.50
2018-04-06T11:08:42.529Z,22.50
2018-04-06T11:11:10.004Z,22.40
2018-04-06T11:13:37.492Z,22.70
2018-04-06T11:16:04.962Z,20.70
2018-04-06T11:18:33.194Z,21.50
2018-04-06T11:21:00.660Z,21.50
2018-04-06T11:23:28.133Z,21.40
2018-04-06T11:25:55.606Z,21.70
2018-04-06T11:28:23.845Z,21.60
2018-04-06T11:30:51.295Z,21.60
2018-04-06T11:33:18.754Z,21.80
2018-04-06T11:35:46.205Z,20.90
2018-04-06T11:38:14.497Z,21.50
2018-04-06T11:40:41.962Z,21.80
2018-04-06T11:43:09.425Z,22.70
2018-04-06T11:45:37.676Z,24.00
2018-04-06T11:48:05.143Z,24.00
2018-04-06T11:50:32.582Z,24.10
2018-04-06T11:53:00.806Z,24.70
2018-04-06T11:55:28.261Z,24.70
2018-04-06T11:57:55.717Z,25.10
2018-04-06T12:00:23.172Z,25.10
2018-04-06T12:02:50.630Z,24.70
2018-04-06T12:05:18.072Z,24.70
2018-04-06T12:07:45.635Z,23.80
2018-04-06T12:10:13.132Z,24.20
2018-04-06T12:12:40.664Z,24.40
2018-04-06T12:15:09.095Z,25.00
2018-04-06T12:17:36.678Z,24.90
2018-04-06T12:20:04.191Z,24.40
2018-04-06T12:22:32.396Z,23.80
2018-04-06T12:24:59.933Z,23.70
2018-04-06T12:27:27.545Z,24.10
2018-04-06T12:29:55.854Z,24.90
2018-04-06T12:32:24.082Z,25.20
2018-04-06T12:34:51.563Z,25.20
2018-04-06T12:37:19.024Z,24.90
2018-04-06T12:39:46.476Z,24.80
2018-04-06T12:42:13.953Z,25.40
2018-04-06T12:44:41.601Z,25.80
2018-04-06T12:47:09.128Z,26.00
2018-04-06T12:49:36.611Z,26.80
2018-04-06T12:52:04.210Z,26.00
2018-04-06T12:54:31.832Z,26.80
2018-04-06T12:56:59.330Z,26.80
2018-04-06T12:59:26.801Z,26.30
2018-04-06T13:01:54.278Z,25.50
2018-04-06T13:04:21.742Z,25.40
2018-04-06T13:06:49.198Z,24.90
2018-04-06T13:09:16.680Z,26.70
2018-04-06T13:11:44.268Z,26.30
2018-04-06T13:14:11.745Z,25.80
2018-04-06T13:16:39.201Z,25.50
2018-04-06T13:19:06.740Z,25.10
2018-04-06T13:21:34.183Z,24.80
2018-04-06T13:24:02.476Z,24.00
2018-04-06T13:26:29.977Z,24.00
2018-04-06T13:28:57.458Z,24.00
2018-04-06T13:31:25.130Z,24.80
2018-04-06T13:33:52.576Z,23.70
2018-04-06T13:36:20.027Z,23.80
2018-04-06T13:38:47.543Z,24.20
2018-04-06T13:41:15.791Z,24.10
2018-04-06T13:43:44.023Z,24.80
2018-04-06T13:46:11.478Z,24.80
2018-04-06T13:48:38.925Z,24.60
2018-04-06T13:51:06.387Z,25.00
2018-04-06T13:53:33.867Z,24.30
2018-04-06T13:56:01.381Z,24.30
2018-04-06T13:58:29.113Z,24.90
2018-04-06T14:00:57.492Z,24.30
2018-04-06T14:03:24.922Z,24.30
2018-04-06T14:05:52.424Z,24.60
2018-04-06T14:08:20.005Z,24.50
2018-04-06T14:10:47.496Z,24.20
2018-04-06T14:13:14.959Z,23.90
2018-04-06T14:15:42.573Z,24.00
2018-04-06T14:18:10.047Z,24.50
2018-04-06T14:20:37.506Z,23.90
2018-04-06T14:23:05.038Z,24.20
2018-04-06T14:25:32.563Z,24.20
2018-04-06T14:28:00.769Z,23.70
2018-04-06T14:30:28.228Z,23.70
2018-04-06T14:32:55.694Z,23.50
2018-04-06T14:35:23.166Z,24.20
2018-04-06T14:37:50.634Z,24.10
2018-04-06T14:40:18.181Z,24.30
2018-04-06T14:42:45.621Z,24.70
2018-04-06T14:45:13.099Z,25.00
2018-04-06T14:47:40.553Z,24.90
2018-04-06T14:50:08.027Z,24.60
2018-04-06T14:52:35.608Z,23.80
2018-04-06T14:55:03.103Z,23.60
2018-04-06T14:57:30.563Z,23.00
2018-04-06T14:59:58.035Z,22.40
2018-04-06T15:02:25.580Z,22.20
2018-04-06T15:04:53.249Z,22.80
2018-04-06T15:07:20.872Z,21.80
2018-04-06T15:09:48.673Z,22.00
2018-04-06T15:12:16.120Z,21.30
2018-04-06T15:14:43.582Z,20.90
2018-04-06T15:17:11.042Z,20.70
2018-04-06T15:19:38.498Z,20.20
2018-04-06T15:22:05.950Z,20.10
2018-04-06T15:24:33.422Z,20.20
2018-04-06T15:27:00.886Z,19.70
2018-04-06T15:29:28.370Z,19.50
2018-04-06T15:31:55.819Z,19.30
2018-04-06T15:34:23.301Z,19.20
2018-04-06T15:36:51.528Z,18.50
2018-04-06T15:39:18.994Z,18.40
2018-04-06T15:41:48.158Z,18.30
2018-04-06T15:44:15.624Z,18.20
2018-04-06T15:46:43.096Z,18.10
2018-04-06T15:49:10.768Z,18.00
2018-04-06T15:51:38.252Z,17.80
2018-04-06T15:54:06.548Z,17.60
2018-04-06T15:56:34.772Z,17.80
2018-04-06T15:59:02.217Z,17.80
2018-04-06T16:01:29.682Z,17.80
2018-04-06T16:03:57.137Z,17.80
2018-04-06T16:06:24.606Z,17.60
2018-04-06T16:08:52.116Z,17.00
2018-04-06T16:11:20.346Z,16.50
2018-04-06T16:13:48.790Z,16.40
2018-04-06T16:16:16.276Z,16.50
2018-04-06T16:18:43.730Z,16.70
2018-04-06T16:21:11.187Z,16.80
2018-04-06T16:23:38.645Z,16.90
2018-04-06T16:26:06.109Z,17.00
2018-04-06T16:28:33.564Z,16.80
2018-04-06T16:31:01.026Z,16.70
2018-04-06T16:33:28.501Z,16.70
2018-04-06T16:35:57.447Z,16.00
2018-04-06T16:38:25.667Z,15.40
2018-04-06T16:40:53.128Z,15.40
2018-04-06T16:43:20.580Z,15.30
2018-04-06T16:45:48.042Z,15.00
2018-04-06T16:48:16.287Z,14.40
2018-04-06T16:50:43.754Z,14.30
2018-04-06T16:53:11.219Z,14.10
2018-04-06T16:55:38.687Z,14.00
2018-04-06T16:58:06.912Z,13.70
2018-04-06T17:00:34.394Z,13.60
2018-04-06T17:03:01.838Z,13.50
2018-04-06T17:05:29.302Z,13.50
2018-04-06T17:07:56.753Z,13.30
2018-04-06T17:10:24.222Z,13.20
2018-04-06T17:12:51.671Z,12.90
2018-04-06T17:15:19.147Z,12.80
2018-04-06T17:17:46.603Z,12.60
2018-04-06T17:20:14.078Z,12.40
2018-04-06T17:22:41.517Z,12.40
2018-04-06T17:25:08.994Z,12.20
2018-04-06T17:27:36.443Z,12.20
2018-04-06T17:30:03.905Z,12.10
2018-04-06T17:32:31.344Z,12.00
2018-04-06T17:34:58.798Z,11.80
2018-04-06T17:37:26.254Z,11.80
2018-04-06T17:39:53.713Z,11.70
2018-04-06T17:42:21.184Z,11.60
2018-04-06T17:44:48.642Z,11.60
2018-04-06T17:47:16.094Z,11.40
2018-04-06T17:49:43.609Z,11.40
2018-04-06T17:52:11.083Z,11.30
2018-04-06T17:54:38.543Z,11.20
2018-04-06T17:57:06.003Z,11.10
2018-04-06T17:59:33.454Z,10.90
2018-04-06T18:02:00.947Z,10.80
2018-04-06T18:04:28.422Z,10.70
2018-04-06T18:06:55.899Z,10.60
2018-04-06T18:09:23.379Z,10.60
2018-04-06T18:11:50.871Z,10.50
2018-04-06T18:14:18.336Z,10.30
2018-04-06T18:16:46.592Z,10.20
2018-04-06T18:19:14.058Z,10.20
2018-04-06T18:21:41.549Z,10.20
2018-04-06T18:24:11.865Z,10.20
2018-04-06T18:26:39.371Z,10.00
2018-04-06T18:29:06.834Z,9.90
2018-04-06T18:31:34.338Z,9.90
2018-04-06T18:34:02.557Z,9.80
2018-04-06T18:36:30.042Z,9.70
2018-04-06T18:38:57.492Z,9.70
2018-04-06T18:41:24.987Z,9.60
2018-04-06T18:43:53.227Z,9.60
2018-04-06T18:46:20.726Z,9.60
2018-04-06T18:48:48.695Z,9.60
2018-04-06T18:51:16.183Z,9.60
2018-04-06T18:53:43.650Z,9.60
2018-04-06T18:58:44.944Z,9.40
2018-04-06T19:01:12.420Z,9.40
2018-04-06T19:03:39.904Z,9.40
2018-04-06T19:06:07.389Z,9.30
2018-04-06T19:08:35.608Z,9.30
2018-04-06T19:11:04.135Z,9.20
2018-04-06T19:13:31.610Z,9.10
2018-04-06T19:16:00.003Z,9.00
2018-04-06T19:18:27.467Z,9.00
2018-04-06T19:20:54.942Z,8.90
2018-04-06T19:23:23.179Z,8.90
2018-04-06T19:25:51.556Z,8.80
2018-04-06T19:28:19.022Z,8.90
2018-04-06T19:30:46.500Z,8.70
2018-04-06T19:33:13.980Z,8.60
2018-04-06T19:35:41.471Z,8.60
2018-04-06T19:38:08.978Z,8.50
2018-04-06T19:40:37.289Z,8.40
2018-04-06T19:43:04.755Z,8.40
2018-04-06T19:45:32.270Z,8.40
2018-04-06T19:48:00.500Z,8.30
2018-04-06T19:50:27.969Z,8.30
2018-04-06T19:52:55.482Z,8.30
2018-04-06T19:55:22.944Z,8.20
2018-04-06T19:57:52.175Z,8.20
2018-04-06T20:00:20.519Z,8.20
2018-04-06T20:02:48.006Z,8.30
2018-04-06T20:05:15.516Z,8.20
2018-04-06T20:07:43.788Z,8.10
2018-04-06T20:10:12.998Z,8.00
2018-04-06T20:12:40.798Z,8.00
2018-04-06T20:15:08.317Z,7.90
2018-04-06T20:17:36.555Z,7.70
2018-04-06T20:20:04.020Z,7.70
2018-04-06T20:22:31.514Z,7.60
2018-04-06T20:24:58.984Z,7.60
2018-04-06T20:27:26.459Z,7.60
2018-04-06T20:29:53.937Z,7.70
2018-04-06T20:32:21.422Z,7.60
2018-04-06T20:34:49.654Z,7.50
2018-04-06T20:37:17.184Z,7.50
2018-04-06T20:39:44.654Z,7.50
2018-04-06T20:42:12.123Z,7.40
2018-04-06T20:44:39.584Z,7.40
2018-04-06T20:47:07.087Z,7.30
2018-04-06T20:49:35.314Z,7.20
2018-04-06T20:52:02.787Z,7.20
2018-04-06T20:54:30.282Z,7.00
2018-04-06T20:56:58.531Z,6.90
2018-04-06T20:59:26.006Z,6.90
2018-04-06T21:01:54.254Z,6.80
2018-04-06T21:04:22.377Z,6.70
2018-04-06T21:06:51.259Z,6.70
2018-04-06T21:09:19.475Z,6.60
2018-04-06T21:11:47.036Z,6.60
2018-04-06T21:14:14.645Z,6.60
2018-04-06T21:16:42.882Z,6.40
2018-04-06T21:19:10.428Z,6.40
2018-04-06T21:21:37.936Z,6.50
2018-04-06T21:24:06.187Z,6.40
2018-04-06T21:26:33.713Z,6.40
2018-04-06T21:29:01.273Z,6.30
2018-04-06T21:31:28.813Z,6.20
2018-04-06T21:33:56.299Z,6.20
2018-04-06T21:36:23.838Z,6.20
2018-04-06T21:38:51.309Z,6.20
2018-04-06T21:41:18.807Z,6.10
2018-04-06T21:43:46.268Z,6.10
2018-04-06T21:46:13.742Z,6.00
2018-04-06T21:51:15.089Z,6.00
2018-04-06T21:53:42.597Z,5.90
2018-04-06T21:56:10.122Z,5.90
2018-04-06T21:58:38.385Z,5.80
2018-04-06T22:01:06.690Z,5.70
2018-04-06T22:03:34.300Z,5.70
2018-04-06T22:06:01.854Z,5.70
2018-04-06T22:08:29.371Z,5.70
2018-04-06T22:10:57.668Z,5.60
2018-04-06T22:13:25.200Z,5.60
2018-04-06T22:15:52.746Z,5.70
2018-04-06T22:18:21.032Z,5.60
2018-04-06T22:20:48.532Z,5.50
2018-04-06T22:23:16.054Z,5.50
2018-04-06T22:25:43.526Z,5.40
2018-04-06T22:28:11.004Z,5.40
2018-04-06T22:30:38.466Z,5.40
2018-04-06T22:33:05.980Z,5.40
2018-04-06T22:35:33.443Z,5.40
2018-04-06T22:38:00.922Z,5.40
2018-04-06T22:40:28.402Z,5.20
2018-04-06T22:42:55.899Z,5.10
2018-04-06T22:45:24.128Z,5.10
2018-04-06T22:47:51.586Z,5.00
2018-04-06T22:50:19.046Z,5.10
2018-04-06T22:52:46.573Z,4.90
2018-04-06T22:55:14.117Z,4.90
2018-04-06T22:57:41.623Z,4.80
2018-04-06T23:00:09.109Z,4.70
2018-04-06T23:02:37.343Z,4.80
2018-04-06T23:05:04.841Z,4.80
2018-04-06T23:07:32.339Z,4.80
2018-04-06T23:09:59.887Z,4.80
2018-04-06T23:12:27.629Z,4.70
2018-04-06T23:14:55.851Z,4.60
2018-04-06T23:17:23.400Z,4.60
2018-04-06T23:19:50.858Z,4.40
2018-04-06T23:22:18.339Z,4.30
2018-04-06T23:24:45.807Z,4.30
2018-04-06T23:27:13.309Z,4.20
2018-04-06T23:29:40.762Z,4.10
2018-04-06T23:32:08.230Z,4.20
2018-04-06T23:34:35.690Z,4.20
2018-04-06T23:37:03.162Z,4.20
2018-04-06T23:39:30.617Z,4.10
2018-04-06T23:41:58.077Z,4.10
2018-04-06T23:44:25.546Z,4.00
2018-04-06T23:46:53.047Z,4.00
2018-04-06T23:49:20.545Z,3.90
2018-04-06T23:51:48.074Z,4.00
2018-04-06T23:54:16.327Z,3.90
2018-04-06T23:56:43.791Z,3.90
2018-04-06T23:59:11.355Z,3.80
